sensor_id;sensor_type;location;lat;lon;timestamp;pressure;altitude;pressure_sealevel;temperature;humidity
6528;BME280;64597;42.664;23.256;2023-08-20T00:00:11;94812.84;;;21.84;53.79
6528;BME280;64597;42.664;23.256;2023-08-20T00:02:37;94820.31;;;21.87;53.79
6528;BME280;64597;42.664;23.256;2023-08-20T00:05:03;94808.75;;;21.86;53.71
6528;BME280;64597;42.664;23.256;2023-08-20T00:07:31;94815.22;;;21.85;53.69
6528;BME280;64597;42.664;23.256;2023-08-20T00:09:57;94828.13;;;21.83;54.13
6528;BME280;64597;42.664;23.256;2023-08-20T00:12:22;94824.44;;;21.79;53.99
6528;BME280;64597;42.664;23.256;2023-08-20T00:14:57;94820.16;;;21.78;54.10
6528;BME280;64597;42.664;23.256;2023-08-20T00:17:24;94811.00;;;21.79;54.00
6528;BME280;64597;42.664;23.256;2023-08-20T00:19:55;94808.44;;;21.74;54.02
6528;BME280;64597;42.664;23.256;2023-08-20T00:22:26;94812.00;;;21.70;54.02
6528;BME280;64597;42.664;23.256;2023-08-20T00:24:53;94819.75;;;21.71;54.42
6528;BME280;64597;42.664;23.256;2023-08-20T00:27:20;94818.88;;;21.62;54.61
6528;BME280;64597;42.664;23.256;2023-08-20T00:29:46;94815.25;;;21.53;54.56
6528;BME280;64597;42.664;23.256;2023-08-20T00:32:11;94821.34;;;21.59;54.44
6528;BME280;64597;42.664;23.256;2023-08-20T00:34:36;94819.44;;;21.59;54.45
6528;BME280;64597;42.664;23.256;2023-08-20T00:37:02;94815.75;;;21.55;54.42
6528;BME280;64597;42.664;23.256;2023-08-20T00:39:29;94821.63;;;21.57;54.15
6528;BME280;64597;42.664;23.256;2023-08-20T00:41:54;94814.19;;;21.54;54.37
6528;BME280;64597;42.664;23.256;2023-08-20T00:44:22;94813.75;;;21.47;54.13
6528;BME280;64597;42.664;23.256;2023-08-20T00:46:47;94817.44;;;21.51;54.09
6528;BME280;64597;42.664;23.256;2023-08-20T00:49:13;94828.28;;;21.46;53.82
6528;BME280;64597;42.664;23.256;2023-08-20T00:51:39;94819.94;;;21.48;54.30
6528;BME280;64597;42.664;23.256;2023-08-20T00:54:05;94777.94;;;21.11;54.24
6528;BME280;64597;42.664;23.256;2023-08-20T00:56:30;94815.44;;;21.43;54.23
6528;BME280;64597;42.664;23.256;2023-08-20T00:58:56;94809.75;;;21.31;54.30
6528;BME280;64597;42.664;23.256;2023-08-20T01:01:23;94815.75;;;21.42;54.48
6528;BME280;64597;42.664;23.256;2023-08-20T01:03:48;94814.38;;;21.44;54.32
6528;BME280;64597;42.664;23.256;2023-08-20T01:06:25;94795.59;;;21.12;54.14
6528;BME280;64597;42.664;23.256;2023-08-20T01:09:13;94807.56;;;21.33;54.23
6528;BME280;64597;42.664;23.256;2023-08-20T01:11:47;94811.38;;;21.32;54.66
6528;BME280;64597;42.664;23.256;2023-08-20T01:14:15;94814.53;;;21.34;54.31
6528;BME280;64597;42.664;23.256;2023-08-20T01:16:41;94794.84;;;21.25;54.53
6528;BME280;64597;42.664;23.256;2023-08-20T01:19:08;94792.91;;;21.12;54.31
6528;BME280;64597;42.664;23.256;2023-08-20T01:21:41;94800.78;;;21.22;54.52
6528;BME280;64597;42.664;23.256;2023-08-20T01:30:10;94812.13;;;21.19;55.55
6528;BME280;64597;42.664;23.256;2023-08-20T01:32:38;94816.47;;;21.15;55.45
6528;BME280;64597;42.664;23.256;2023-08-20T01:35:13;94809.44;;;21.19;55.40
6528;BME280;64597;42.664;23.256;2023-08-20T01:37:39;94815.09;;;21.17;55.46
6528;BME280;64597;42.664;23.256;2023-08-20T01:40:06;94795.69;;;21.07;55.38
6528;BME280;64597;42.664;23.256;2023-08-20T01:42:33;94786.03;;;21.06;55.88
6528;BME280;64597;42.664;23.256;2023-08-20T01:44:59;94801.97;;;21.16;55.57
6528;BME280;64597;42.664;23.256;2023-08-20T01:47:24;94801.75;;;21.12;55.58
6528;BME280;64597;42.664;23.256;2023-08-20T01:49:49;94791.66;;;20.72;55.58
6528;BME280;64597;42.664;23.256;2023-08-20T01:52:15;94809.44;;;21.00;56.23
6528;BME280;64597;42.664;23.256;2023-08-20T01:54:40;94803.44;;;21.08;56.07
6528;BME280;64597;42.664;23.256;2023-08-20T01:57:06;94798.16;;;21.03;56.16
6528;BME280;64597;42.664;23.256;2023-08-20T01:59:31;94802.13;;;21.06;56.18
6528;BME280;64597;42.664;23.256;2023-08-20T02:01:57;94796.91;;;20.96;56.45
6528;BME280;64597;42.664;23.256;2023-08-20T02:04:22;94792.66;;;20.95;56.28
6528;BME280;64597;42.664;23.256;2023-08-20T02:06:47;94792.16;;;20.93;56.14
6528;BME280;64597;42.664;23.256;2023-08-20T02:09:13;94783.00;;;20.94;56.13
6528;BME280;64597;42.664;23.256;2023-08-20T02:11:39;94794.16;;;21.01;55.83
6528;BME280;64597;42.664;23.256;2023-08-20T02:14:04;94768.69;;;21.03;55.98
6528;BME280;64597;42.664;23.256;2023-08-20T02:16:29;94778.50;;;21.08;55.94
6528;BME280;64597;42.664;23.256;2023-08-20T02:18:55;94780.59;;;21.11;55.92
6528;BME280;64597;42.664;23.256;2023-08-20T02:21:20;94761.41;;;21.04;56.11
6528;BME280;64597;42.664;23.256;2023-08-20T02:23:46;94786.66;;;21.03;56.24
6528;BME280;64597;42.664;23.256;2023-08-20T02:26:11;94795.22;;;21.00;56.64
6528;BME280;64597;42.664;23.256;2023-08-20T02:28:37;94791.19;;;21.02;56.71
6528;BME280;64597;42.664;23.256;2023-08-20T02:31:05;94790.41;;;21.02;56.46
6528;BME280;64597;42.664;23.256;2023-08-20T02:33:30;94785.59;;;20.99;56.77
6528;BME280;64597;42.664;23.256;2023-08-20T02:36:04;94777.50;;;20.85;56.90
6528;BME280;64597;42.664;23.256;2023-08-20T02:38:29;94788.97;;;20.91;57.14
6528;BME280;64597;42.664;23.256;2023-08-20T02:40:55;94785.34;;;20.82;57.05
6528;BME280;64597;42.664;23.256;2023-08-20T02:43:20;94797.28;;;20.89;57.13
6528;BME280;64597;42.664;23.256;2023-08-20T02:45:46;94797.00;;;20.91;57.08
6528;BME280;64597;42.664;23.256;2023-08-20T02:48:13;94807.13;;;20.94;56.98
6528;BME280;64597;42.664;23.256;2023-08-20T02:50:38;94796.00;;;20.87;57.03
6528;BME280;64597;42.664;23.256;2023-08-20T02:53:05;94798.88;;;20.90;57.01
6528;BME280;64597;42.664;23.256;2023-08-20T02:55:31;94798.56;;;20.92;56.97
6528;BME280;64597;42.664;23.256;2023-08-20T02:57:57;94807.22;;;20.89;57.13
6528;BME280;64597;42.664;23.256;2023-08-20T03:00:23;94801.41;;;20.82;57.08
6528;BME280;64597;42.664;23.256;2023-08-20T03:02:48;94807.78;;;20.86;57.24
6528;BME280;64597;42.664;23.256;2023-08-20T03:05:14;94806.88;;;20.77;57.17
6528;BME280;64597;42.664;23.256;2023-08-20T03:07:39;94795.66;;;20.75;56.92
6528;BME280;64597;42.664;23.256;2023-08-20T03:10:06;94809.06;;;20.75;56.99
6528;BME280;64597;42.664;23.256;2023-08-20T03:12:34;94819.19;;;20.78;57.01
6528;BME280;64597;42.664;23.256;2023-08-20T03:14:59;94814.91;;;20.77;56.96
6528;BME280;64597;42.664;23.256;2023-08-20T03:17:25;94810.56;;;20.81;56.97
6528;BME280;64597;42.664;23.256;2023-08-20T03:19:55;94809.47;;;20.82;56.94
6528;BME280;64597;42.664;23.256;2023-08-20T03:22:22;94807.38;;;20.79;57.13
6528;BME280;64597;42.664;23.256;2023-08-20T03:24:47;94798.41;;;20.70;57.02
6528;BME280;64597;42.664;23.256;2023-08-20T03:27:13;94809.63;;;20.72;56.95
6528;BME280;64597;42.664;23.256;2023-08-20T03:29:38;94803.75;;;20.70;57.46
6528;BME280;64597;42.664;23.256;2023-08-20T03:32:04;94805.41;;;20.66;57.39
6528;BME280;64597;42.664;23.256;2023-08-20T03:34:29;94803.53;;;20.66;57.38
6528;BME280;64597;42.664;23.256;2023-08-20T03:36:55;94793.63;;;20.67;57.30
6528;BME280;64597;42.664;23.256;2023-08-20T03:39:20;94795.22;;;20.68;57.48
6528;BME280;64597;42.664;23.256;2023-08-20T03:41:46;94789.66;;;20.64;57.50
6528;BME280;64597;42.664;23.256;2023-08-20T03:44:11;94792.03;;;20.66;57.42
6528;BME280;64597;42.664;23.256;2023-08-20T03:46:37;94799.06;;;20.62;57.56
6528;BME280;64597;42.664;23.256;2023-08-20T03:49:02;94779.94;;;20.49;57.63
6528;BME280;64597;42.664;23.256;2023-08-20T03:51:28;94787.31;;;20.58;57.78
6528;BME280;64597;42.664;23.256;2023-08-20T03:53:53;94775.50;;;20.59;57.99
6528;BME280;64597;42.664;23.256;2023-08-20T03:56:19;94788.91;;;20.59;58.34
6528;BME280;64597;42.664;23.256;2023-08-20T03:58:45;94795.94;;;20.54;57.99
6528;BME280;64597;42.664;23.256;2023-08-20T04:01:10;94788.69;;;20.55;58.34
6528;BME280;64597;42.664;23.256;2023-08-20T04:03:35;94790.56;;;20.54;58.43
6528;BME280;64597;42.664;23.256;2023-08-20T04:06:01;94791.72;;;20.48;58.48
6528;BME280;64597;42.664;23.256;2023-08-20T04:08:26;94783.19;;;20.46;58.41
6528;BME280;64597;42.664;23.256;2023-08-20T04:10:52;94781.53;;;20.50;58.54
6528;BME280;64597;42.664;23.256;2023-08-20T04:13:17;94785.22;;;20.54;58.58
6528;BME280;64597;42.664;23.256;2023-08-20T04:15:44;94787.88;;;20.54;58.68
6528;BME280;64597;42.664;23.256;2023-08-20T04:18:10;94786.53;;;20.57;58.41
6528;BME280;64597;42.664;23.256;2023-08-20T04:20:36;94791.06;;;20.57;58.57
6528;BME280;64597;42.664;23.256;2023-08-20T04:23:01;94788.13;;;20.58;58.61
6528;BME280;64597;42.664;23.256;2023-08-20T04:25:27;94771.09;;;20.49;58.58
6528;BME280;64597;42.664;23.256;2023-08-20T04:27:52;94771.91;;;20.49;58.47
6528;BME280;64597;42.664;23.256;2023-08-20T04:30:18;94792.63;;;20.63;58.47
6528;BME280;64597;42.664;23.256;2023-08-20T04:32:43;94781.41;;;20.61;58.19
6528;BME280;64597;42.664;23.256;2023-08-20T04:35:09;94790.66;;;20.68;58.30
6528;BME280;64597;42.664;23.256;2023-08-20T04:37:35;94795.66;;;20.75;57.83
6528;BME280;64597;42.664;23.256;2023-08-20T04:40:01;94805.56;;;20.74;57.67
6528;BME280;64597;42.664;23.256;2023-08-20T04:42:27;94795.66;;;20.75;57.65
6528;BME280;64597;42.664;23.256;2023-08-20T04:44:52;94782.81;;;20.72;57.55
6528;BME280;64597;42.664;23.256;2023-08-20T04:47:18;94802.38;;;20.91;57.54
6528;BME280;64597;42.664;23.256;2023-08-20T04:49:54;94796.41;;;20.94;57.30
6528;BME280;64597;42.664;23.256;2023-08-20T04:52:23;94798.44;;;21.02;57.08
6528;BME280;64597;42.664;23.256;2023-08-20T04:54:49;94799.88;;;21.13;57.30
6528;BME280;64597;42.664;23.256;2023-08-20T04:57:15;94779.50;;;21.12;56.93
6528;BME280;64597;42.664;23.256;2023-08-20T04:59:42;94780.13;;;21.22;56.68
6528;BME280;64597;42.664;23.256;2023-08-20T05:02:13;94797.84;;;21.37;56.56
6528;BME280;64597;42.664;23.256;2023-08-20T05:04:39;94796.16;;;21.41;56.37
6528;BME280;64597;42.664;23.256;2023-08-20T05:07:05;94806.31;;;21.58;56.16
6528;BME280;64597;42.664;23.256;2023-08-20T05:09:32;94802.16;;;21.65;55.73
6528;BME280;64597;42.664;23.256;2023-08-20T05:11:58;94809.13;;;21.80;55.48
6528;BME280;64597;42.664;23.256;2023-08-20T05:14:23;94793.16;;;21.88;54.96
6528;BME280;64597;42.664;23.256;2023-08-20T05:16:49;94807.28;;;22.07;54.43
6528;BME280;64597;42.664;23.256;2023-08-20T05:19:14;94799.09;;;22.12;54.33
6528;BME280;64597;42.664;23.256;2023-08-20T05:21:40;94812.22;;;22.28;54.12
6528;BME280;64597;42.664;23.256;2023-08-20T05:24:05;94794.72;;;22.30;53.86
6528;BME280;64597;42.664;23.256;2023-08-20T05:26:31;94807.97;;;22.49;52.62
6528;BME280;64597;42.664;23.256;2023-08-20T05:28:56;94806.72;;;22.60;52.83
6528;BME280;64597;42.664;23.256;2023-08-20T05:31:22;94788.00;;;22.55;52.77
6528;BME280;64597;42.664;23.256;2023-08-20T05:33:47;94775.25;;;22.47;52.18
6528;BME280;64597;42.664;23.256;2023-08-20T05:36:14;94790.09;;;22.80;51.58
6528;BME280;64597;42.664;23.256;2023-08-20T05:41:05;94808.56;;;23.17;50.67
6528;BME280;64597;42.664;23.256;2023-08-20T05:43:30;94809.19;;;23.14;50.70
6528;BME280;64597;42.664;23.256;2023-08-20T05:45:56;94808.81;;;23.29;50.84
6528;BME280;64597;42.664;23.256;2023-08-20T05:48:21;94812.88;;;23.40;50.36
6528;BME280;64597;42.664;23.256;2023-08-20T05:50:46;94812.97;;;23.57;49.93
6528;BME280;64597;42.664;23.256;2023-08-20T05:53:12;94799.97;;;23.59;49.74
6528;BME280;64597;42.664;23.256;2023-08-20T05:55:38;94806.41;;;23.81;50.00
6528;BME280;64597;42.664;23.256;2023-08-20T05:58:04;94764.09;;;23.72;48.90
6528;BME280;64597;42.664;23.256;2023-08-20T06:00:29;94803.38;;;24.13;48.30
6528;BME280;64597;42.664;23.256;2023-08-20T06:02:55;94799.59;;;24.14;49.02
6528;BME280;64597;42.664;23.256;2023-08-20T06:05:20;94809.16;;;24.37;48.82
6528;BME280;64597;42.664;23.256;2023-08-20T06:07:46;94797.59;;;24.53;48.44
6528;BME280;64597;42.664;23.256;2023-08-20T06:10:11;94791.75;;;24.69;47.98
6528;BME280;64597;42.664;23.256;2023-08-20T06:12:37;94813.06;;;24.96;47.67
6528;BME280;64597;42.664;23.256;2023-08-20T06:15:03;94810.53;;;25.16;47.58
6528;BME280;64597;42.664;23.256;2023-08-20T06:17:29;94811.09;;;25.48;47.14
6528;BME280;64597;42.664;23.256;2023-08-20T06:19:54;94801.34;;;25.72;45.94
6528;BME280;64597;42.664;23.256;2023-08-20T06:22:20;94809.66;;;26.05;44.72
6528;BME280;64597;42.664;23.256;2023-08-20T06:24:45;94812.41;;;26.34;44.59
6528;BME280;64597;42.664;23.256;2023-08-20T06:27:11;94808.84;;;26.71;44.02
6528;BME280;64597;42.664;23.256;2023-08-20T06:29:36;94814.47;;;27.08;43.09
6528;BME280;64597;42.664;23.256;2023-08-20T06:32:02;94764.22;;;27.19;42.83
6528;BME280;64597;42.664;23.256;2023-08-20T06:34:28;94803.91;;;27.92;41.20
6528;BME280;64597;42.664;23.256;2023-08-20T06:36:54;94792.22;;;28.24;40.14
6528;BME280;64597;42.664;23.256;2023-08-20T06:39:19;94807.56;;;28.69;39.91
6528;BME280;64597;42.664;23.256;2023-08-20T06:41:45;94808.84;;;29.11;38.79
6528;BME280;64597;42.664;23.256;2023-08-20T06:44:11;94798.97;;;29.46;37.22
6528;BME280;64597;42.664;23.256;2023-08-20T06:46:36;94811.16;;;29.95;35.97
6528;BME280;64597;42.664;23.256;2023-08-20T06:49:02;94806.72;;;30.19;36.06
6528;BME280;64597;42.664;23.256;2023-08-20T06:51:28;94804.53;;;30.40;35.25
6528;BME280;64597;42.664;23.256;2023-08-20T06:53:53;94808.66;;;30.84;34.78
6528;BME280;64597;42.664;23.256;2023-08-20T06:56:20;94813.03;;;31.23;34.22
6528;BME280;64597;42.664;23.256;2023-08-20T06:58:46;94790.63;;;31.52;33.11
6528;BME280;64597;42.664;23.256;2023-08-20T07:01:11;94798.34;;;31.89;31.80
6528;BME280;64597;42.664;23.256;2023-08-20T07:03:43;94797.88;;;32.06;31.94
6528;BME280;64597;42.664;23.256;2023-08-20T07:06:10;94794.16;;;32.40;31.56
6528;BME280;64597;42.664;23.256;2023-08-20T07:08:36;94792.78;;;32.50;31.72
6528;BME280;64597;42.664;23.256;2023-08-20T07:11:04;94801.78;;;32.80;30.02
6528;BME280;64597;42.664;23.256;2023-08-20T07:13:29;94806.31;;;32.95;28.99
6528;BME280;64597;42.664;23.256;2023-08-20T07:15:54;94803.53;;;33.17;28.66
6528;BME280;64597;42.664;23.256;2023-08-20T07:18:20;94797.56;;;33.42;28.79
6528;BME280;64597;42.664;23.256;2023-08-20T07:20:45;94788.88;;;33.66;27.92
6528;BME280;64597;42.664;23.256;2023-08-20T07:23:11;94791.88;;;33.94;27.07
6528;BME280;64597;42.664;23.256;2023-08-20T07:25:38;94812.72;;;34.02;26.61
6528;BME280;64597;42.664;23.256;2023-08-20T07:28:06;94803.91;;;34.19;27.29
6528;BME280;64597;42.664;23.256;2023-08-20T07:30:32;94805.63;;;34.38;27.11
6528;BME280;64597;42.664;23.256;2023-08-20T07:32:58;94799.53;;;34.58;26.39
6528;BME280;64597;42.664;23.256;2023-08-20T07:35:24;94794.47;;;34.57;25.91
6528;BME280;64597;42.664;23.256;2023-08-20T07:37:50;94801.25;;;34.77;26.47
6528;BME280;64597;42.664;23.256;2023-08-20T07:40:15;94804.56;;;35.07;25.85
6528;BME280;64597;42.664;23.256;2023-08-20T07:42:41;94802.31;;;35.27;25.19
6528;BME280;64597;42.664;23.256;2023-08-20T07:45:07;94800.81;;;35.43;25.36
6528;BME280;64597;42.664;23.256;2023-08-20T07:47:33;94782.09;;;35.52;24.61
6528;BME280;64597;42.664;23.256;2023-08-20T07:49:59;94809.59;;;35.77;24.54
6528;BME280;64597;42.664;23.256;2023-08-20T07:52:24;94804.88;;;35.74;24.53
6528;BME280;64597;42.664;23.256;2023-08-20T07:54:50;94790.03;;;35.96;24.72
6528;BME280;64597;42.664;23.256;2023-08-20T07:57:16;94791.97;;;35.89;24.32
6528;BME280;64597;42.664;23.256;2023-08-20T07:59:41;94801.84;;;36.07;24.34
6528;BME280;64597;42.664;23.256;2023-08-20T08:02:07;94809.69;;;36.16;23.96
6528;BME280;64597;42.664;23.256;2023-08-20T08:04:33;94805.38;;;36.18;23.98
6528;BME280;64597;42.664;23.256;2023-08-20T08:06:59;94800.28;;;36.10;24.00
6528;BME280;64597;42.664;23.256;2023-08-20T08:09:29;94798.69;;;36.02;23.42
6528;BME280;64597;42.664;23.256;2023-08-20T08:11:55;94803.81;;;36.14;23.85
6528;BME280;64597;42.664;23.256;2023-08-20T08:14:21;94801.06;;;36.38;23.72
6528;BME280;64597;42.664;23.256;2023-08-20T08:16:47;94793.22;;;36.62;23.49
6528;BME280;64597;42.664;23.256;2023-08-20T08:19:13;94792.84;;;36.70;22.19
6528;BME280;64597;42.664;23.256;2023-08-20T08:21:39;94807.34;;;36.99;22.22
6528;BME280;64597;42.664;23.256;2023-08-20T08:24:05;94799.50;;;37.04;21.40
6528;BME280;64597;42.664;23.256;2023-08-20T08:26:33;94797.88;;;37.14;21.47
6528;BME280;64597;42.664;23.256;2023-08-20T08:28:58;94803.31;;;37.32;20.78
6528;BME280;64597;42.664;23.256;2023-08-20T08:31:24;94793.09;;;37.32;21.04
6528;BME280;64597;42.664;23.256;2023-08-20T08:33:49;94808.06;;;37.24;20.49
6528;BME280;64597;42.664;23.256;2023-08-20T08:36:14;94785.25;;;37.31;20.96
6528;BME280;64597;42.664;23.256;2023-08-20T08:38:42;94785.28;;;37.20;20.90
6528;BME280;64597;42.664;23.256;2023-08-20T08:41:10;94752.28;;;37.13;20.00
6528;BME280;64597;42.664;23.256;2023-08-20T08:43:38;94794.28;;;37.38;20.79
6528;BME280;64597;42.664;23.256;2023-08-20T08:46:07;94799.28;;;37.64;19.77
6528;BME280;64597;42.664;23.256;2023-08-20T08:48:34;94794.50;;;37.75;19.75
6528;BME280;64597;42.664;23.256;2023-08-20T08:51:03;94800.00;;;37.86;19.63
6528;BME280;64597;42.664;23.256;2023-08-20T08:53:29;94804.25;;;37.97;20.28
6528;BME280;64597;42.664;23.256;2023-08-20T08:55:55;94800.75;;;37.86;19.68
6528;BME280;64597;42.664;23.256;2023-08-20T08:58:21;94807.72;;;38.09;19.16
6528;BME280;64597;42.664;23.256;2023-08-20T09:00:47;94792.69;;;38.24;18.44
6528;BME280;64597;42.664;23.256;2023-08-20T09:03:13;94795.13;;;38.08;18.51
6528;BME280;64597;42.664;23.256;2023-08-20T09:05:49;94805.91;;;37.77;18.64
6528;BME280;64597;42.664;23.256;2023-08-20T09:08:20;94781.28;;;37.46;19.47
6528;BME280;64597;42.664;23.256;2023-08-20T09:10:45;94804.75;;;37.71;18.36
6528;BME280;64597;42.664;23.256;2023-08-20T09:13:11;94796.13;;;37.69;18.10
6528;BME280;64597;42.664;23.256;2023-08-20T09:15:36;94793.09;;;37.43;18.06
6528;BME280;64597;42.664;23.256;2023-08-20T09:18:03;94789.94;;;37.44;18.57
6528;BME280;64597;42.664;23.256;2023-08-20T09:20:36;94785.47;;;37.78;18.11
6528;BME280;64597;42.664;23.256;2023-08-20T09:23:01;94776.31;;;37.95;18.59
6528;BME280;64597;42.664;23.256;2023-08-20T09:25:27;94790.34;;;38.15;17.54
6528;BME280;64597;42.664;23.256;2023-08-20T09:27:54;94788.09;;;38.00;17.91
6528;BME280;64597;42.664;23.256;2023-08-20T09:30:19;94782.44;;;38.24;17.88
6528;BME280;64597;42.664;23.256;2023-08-20T09:33:23;94791.69;;;38.48;17.70
6528;BME280;64597;42.664;23.256;2023-08-20T09:35:50;94793.34;;;38.38;17.66
6528;BME280;64597;42.664;23.256;2023-08-20T09:38:18;94780.78;;;38.37;18.50
6528;BME280;64597;42.664;23.256;2023-08-20T09:40:52;94778.91;;;38.24;17.92
6528;BME280;64597;42.664;23.256;2023-08-20T09:43:23;94762.75;;;38.26;17.84
6528;BME280;64597;42.664;23.256;2023-08-20T09:45:54;94789.44;;;38.39;17.72
6528;BME280;64597;42.664;23.256;2023-08-20T09:48:20;94780.09;;;38.16;17.80
6528;BME280;64597;42.664;23.256;2023-08-20T09:50:47;94768.59;;;38.31;18.06
6528;BME280;64597;42.664;23.256;2023-08-20T09:53:26;94778.75;;;38.45;17.34
6528;BME280;64597;42.664;23.256;2023-08-20T09:55:52;94767.22;;;38.57;17.51
6528;BME280;64597;42.664;23.256;2023-08-20T09:58:19;94772.47;;;38.85;17.37
6528;BME280;64597;42.664;23.256;2023-08-20T10:00:51;94771.94;;;39.01;16.80
6528;BME280;64597;42.664;23.256;2023-08-20T10:03:20;94782.84;;;39.11;17.01
6528;BME280;64597;42.664;23.256;2023-08-20T10:05:48;94783.97;;;39.17;17.24
6528;BME280;64597;42.664;23.256;2023-08-20T10:08:15;94769.13;;;39.04;16.77
6528;BME280;64597;42.664;23.256;2023-08-20T10:10:40;94780.22;;;38.97;17.24
6528;BME280;64597;42.664;23.256;2023-08-20T10:13:06;94777.09;;;38.95;17.60
6528;BME280;64597;42.664;23.256;2023-08-20T10:15:32;94773.03;;;39.10;17.58
6528;BME280;64597;42.664;23.256;2023-08-20T10:18:01;94779.78;;;39.02;17.83
6528;BME280;64597;42.664;23.256;2023-08-20T10:20:28;94778.06;;;38.78;17.16
6528;BME280;64597;42.664;23.256;2023-08-20T10:23:00;94771.78;;;38.78;17.23
6528;BME280;64597;42.664;23.256;2023-08-20T10:25:26;94774.22;;;38.68;17.33
6528;BME280;64597;42.664;23.256;2023-08-20T10:28:11;94774.94;;;38.76;17.63
6528;BME280;64597;42.664;23.256;2023-08-20T10:30:39;94762.28;;;38.82;17.35
6528;BME280;64597;42.664;23.256;2023-08-20T10:33:24;94759.44;;;38.89;17.08
6528;BME280;64597;42.664;23.256;2023-08-20T10:35:50;94736.28;;;38.80;16.92
6528;BME280;64597;42.664;23.256;2023-08-20T10:38:18;94750.72;;;38.91;17.21
6528;BME280;64597;42.664;23.256;2023-08-20T10:40:57;94763.75;;;38.90;17.04
6528;BME280;64597;42.664;23.256;2023-08-20T10:46:13;94762.38;;;38.71;17.24
6528;BME280;64597;42.664;23.256;2023-08-20T10:48:39;94762.09;;;38.55;17.16
6528;BME280;64597;42.664;23.256;2023-08-20T10:53:41;94745.78;;;38.31;17.98
6528;BME280;64597;42.664;23.256;2023-08-20T10:56:12;94757.28;;;38.19;17.98
6528;BME280;64597;42.664;23.256;2023-08-20T10:58:41;94740.38;;;38.13;17.73
6528;BME280;64597;42.664;23.256;2023-08-20T11:01:21;94746.31;;;38.08;17.71
6528;BME280;64597;42.664;23.256;2023-08-20T11:03:51;94751.59;;;37.85;17.98
6528;BME280;64597;42.664;23.256;2023-08-20T11:06:17;94729.50;;;37.95;18.06
6528;BME280;64597;42.664;23.256;2023-08-20T11:08:43;94737.69;;;38.06;18.81
6528;BME280;64597;42.664;23.256;2023-08-20T11:11:10;94745.69;;;37.90;18.65
6528;BME280;64597;42.664;23.256;2023-08-20T11:13:36;94744.88;;;37.89;17.47
6528;BME280;64597;42.664;23.256;2023-08-20T11:16:03;94737.00;;;37.91;17.17
6528;BME280;64597;42.664;23.256;2023-08-20T11:18:30;94728.09;;;37.66;17.81
6528;BME280;64597;42.664;23.256;2023-08-20T11:20:57;94736.81;;;37.54;17.55
6528;BME280;64597;42.664;23.256;2023-08-20T11:23:23;94741.22;;;37.27;18.18
6528;BME280;64597;42.664;23.256;2023-08-20T11:25:48;94703.66;;;36.78;18.70
6528;BME280;64597;42.664;23.256;2023-08-20T11:28:13;94735.84;;;37.06;19.01
6528;BME280;64597;42.664;23.256;2023-08-20T11:30:39;94729.50;;;37.16;18.28
6528;BME280;64597;42.664;23.256;2023-08-20T11:33:05;94729.91;;;37.11;18.75
6528;BME280;64597;42.664;23.256;2023-08-20T11:35:32;94736.19;;;37.11;18.49
6528;BME280;64597;42.664;23.256;2023-08-20T11:37:58;94717.03;;;36.87;18.60
6528;BME280;64597;42.664;23.256;2023-08-20T11:40:24;94724.09;;;36.81;18.44
6528;BME280;64597;42.664;23.256;2023-08-20T11:42:49;94720.19;;;36.71;18.39
6528;BME280;64597;42.664;23.256;2023-08-20T11:45:15;94720.22;;;36.57;18.95
6528;BME280;64597;42.664;23.256;2023-08-20T11:47:41;94723.34;;;36.56;19.00
6528;BME280;64597;42.664;23.256;2023-08-20T11:50:08;94717.50;;;36.32;19.46
6528;BME280;64597;42.664;23.256;2023-08-20T11:52:35;94719.44;;;36.25;18.97
6528;BME280;64597;42.664;23.256;2023-08-20T11:55:00;94627.25;;;35.78;19.70
6528;BME280;64597;42.664;23.256;2023-08-20T11:57:28;94706.88;;;36.63;19.48
6528;BME280;64597;42.664;23.256;2023-08-20T11:59:53;94715.09;;;36.56;19.60
6528;BME280;64597;42.664;23.256;2023-08-20T12:02:26;94702.16;;;36.21;19.25
6528;BME280;64597;42.664;23.256;2023-08-20T12:04:55;94717.88;;;36.27;19.71
6528;BME280;64597;42.664;23.256;2023-08-20T12:07:25;94714.72;;;36.39;19.80
6528;BME280;64597;42.664;23.256;2023-08-20T12:09:52;94713.16;;;36.38;19.32
6528;BME280;64597;42.664;23.256;2023-08-20T12:12:19;94713.56;;;36.05;19.74
6528;BME280;64597;42.664;23.256;2023-08-20T12:14:45;94702.97;;;36.00;19.71
6528;BME280;64597;42.664;23.256;2023-08-20T12:17:11;94684.13;;;35.81;20.09
6528;BME280;64597;42.664;23.256;2023-08-20T12:19:37;94702.16;;;35.93;20.32
6528;BME280;64597;42.664;23.256;2023-08-20T12:22:02;94696.28;;;35.87;20.35
6528;BME280;64597;42.664;23.256;2023-08-20T12:24:29;94686.13;;;36.12;20.35
6528;BME280;64597;42.664;23.256;2023-08-20T12:26:54;94690.44;;;36.45;19.54
6528;BME280;64597;42.664;23.256;2023-08-20T12:29:20;94693.13;;;36.52;19.38
6528;BME280;64597;42.664;23.256;2023-08-20T12:31:45;94701.41;;;36.49;20.00
6528;BME280;64597;42.664;23.256;2023-08-20T12:34:11;94689.25;;;36.43;20.16
6528;BME280;64597;42.664;23.256;2023-08-20T12:36:36;94692.75;;;36.39;20.21
6528;BME280;64597;42.664;23.256;2023-08-20T12:39:03;94690.78;;;36.44;20.64
6528;BME280;64597;42.664;23.256;2023-08-20T12:41:30;94672.72;;;36.50;20.39
6528;BME280;64597;42.664;23.256;2023-08-20T12:43:56;94660.97;;;36.38;20.36
6528;BME280;64597;42.664;23.256;2023-08-20T12:46:22;94680.19;;;36.35;21.00
6528;BME280;64597;42.664;23.256;2023-08-20T12:48:47;94689.59;;;36.37;20.97
6528;BME280;64597;42.664;23.256;2023-08-20T12:51:13;94676.25;;;36.39;21.03
6528;BME280;64597;42.664;23.256;2023-08-20T12:53:41;94684.13;;;36.45;21.30
6528;BME280;64597;42.664;23.256;2023-08-20T12:56:07;94673.53;;;36.47;21.00
6528;BME280;64597;42.664;23.256;2023-08-20T12:58:32;94630.78;;;36.17;20.81
6528;BME280;64597;42.664;23.256;2023-08-20T13:01:01;94685.69;;;36.38;20.86
6528;BME280;64597;42.664;23.256;2023-08-20T13:03:26;94668.06;;;36.15;20.77
6528;BME280;64597;42.664;23.256;2023-08-20T13:05:53;94677.47;;;36.24;20.89
6528;BME280;64597;42.664;23.256;2023-08-20T13:08:19;94677.88;;;36.26;20.82
6528;BME280;64597;42.664;23.256;2023-08-20T13:10:57;94682.19;;;36.20;20.92